createdAt,value
2023-03-25T00:00:59.858Z,0.80
2023-03-25T00:06:02.019Z,1.47
2023-03-25T00:11:04.517Z,0.70
2023-03-25T00:16:07.188Z,1.00
2023-03-25T00:21:10.812Z,1.10
2023-03-25T00:26:12.593Z,0.83
2023-03-25T00:31:15.165Z,1.10
2023-03-25T00:36:18.065Z,1.50
2023-03-25T00:41:23.364Z,1.40
2023-03-25T00:46:27.416Z,1.43
2023-03-25T00:51:31.337Z,1.00
2023-03-25T00:56:33.076Z,0.90
2023-03-25T01:01:39.289Z,1.77
2023-03-25T01:06:45.769Z,1.93
2023-03-25T01:11:49.100Z,0.80
2023-03-25T01:16:50.914Z,1.00
2023-03-25T01:21:52.512Z,1.93
2023-03-25T01:26:54.171Z,1.03
2023-03-25T01:31:55.916Z,1.00
2023-03-25T01:36:58.267Z,1.80
2023-03-25T01:41:59.992Z,1.40
2023-03-25T01:47:03.983Z,1.23
2023-03-25T01:52:09.373Z,0.90
2023-03-25T01:57:13.611Z,1.40
2023-03-25T02:02:17.745Z,2.43
2023-03-25T02:07:19.879Z,2.13
2023-03-25T02:12:21.451Z,1.00
2023-03-25T02:18:10.232Z,2.20
2023-03-25T02:23:22.267Z,0.90
2023-03-25T02:28:36.326Z,1.27
2023-03-25T02:33:59.795Z,1.70
2023-03-25T02:39:19.969Z,0.90
2023-03-25T02:44:54.501Z,1.93
2023-03-25T02:50:00.951Z,1.83
2023-03-25T02:55:04.998Z,3.03
2023-03-25T03:00:14.209Z,2.53
2023-03-25T03:05:24.651Z,1.00
2023-03-25T03:10:32.422Z,1.00
2023-03-25T03:15:55.331Z,1.20
2023-03-25T03:21:23.859Z,0.97
2023-03-25T03:26:43.315Z,2.87
2023-03-25T03:32:10.020Z,1.70
2023-03-25T03:37:15.043Z,1.87
2023-03-25T03:42:30.407Z,1.47
2023-03-25T03:47:37.001Z,3.43
2023-03-25T03:53:07.808Z,3.20
2023-03-25T03:58:15.633Z,1.83
2023-03-25T04:03:24.309Z,1.57
2023-03-25T04:08:35.686Z,1.23
2023-03-25T04:13:41.423Z,1.63
2023-03-25T04:18:43.547Z,4.07
2023-03-25T04:23:46.161Z,1.77
2023-03-25T04:28:47.935Z,0.80
2023-03-25T04:33:51.164Z,1.17
2023-03-25T04:38:53.797Z,0.80
2023-03-25T04:43:55.401Z,1.50
2023-03-25T04:48:57.844Z,1.40
2023-03-25T04:53:59.675Z,1.30
2023-03-25T04:59:01.309Z,2.97
2023-03-25T05:04:05.155Z,1.07
2023-03-25T05:09:10.002Z,2.00
2023-03-25T05:14:13.189Z,1.73
2023-03-25T05:19:15.640Z,1.00
2023-03-25T05:24:17.432Z,2.97
2023-03-25T05:29:19.337Z,0.80
2023-03-25T05:34:20.910Z,1.00
2023-03-25T05:39:22.865Z,1.53
2023-03-25T05:44:26.185Z,0.93
2023-03-25T05:49:28.523Z,1.07
2023-03-25T05:54:30.775Z,0.93
2023-03-25T05:59:33.268Z,0.93
2023-03-25T06:04:38.002Z,1.67
2023-03-25T06:09:46.223Z,1.07
2023-03-25T06:14:48.604Z,0.83
2023-03-25T06:19:51.836Z,1.00
2023-03-25T06:24:53.421Z,1.60
2023-03-25T06:29:55.126Z,1.30
2023-03-25T06:34:56.743Z,1.43
2023-03-25T06:39:59.794Z,2.80
2023-03-25T06:45:05.041Z,2.93
2023-03-25T06:50:19.296Z,1.83
2023-03-25T06:55:20.922Z,1.87
2023-03-25T07:00:24.596Z,1.27
2023-03-25T07:05:26.259Z,1.30
2023-03-25T07:10:27.907Z,2.20
2023-03-25T07:15:29.444Z,0.90
2023-03-25T07:20:31.193Z,1.87
2023-03-25T07:25:33.111Z,1.43
2023-03-25T07:30:34.742Z,1.50
2023-03-25T07:35:36.734Z,1.10
2023-03-25T07:40:38.578Z,1.87
2023-03-25T07:45:55.624Z,2.60
2023-03-25T07:50:57.344Z,2.00
2023-03-25T07:55:59.314Z,2.00
2023-03-25T08:01:01.635Z,0.87
2023-03-25T08:06:03.407Z,0.80
2023-03-25T08:11:05.196Z,0.87
2023-03-25T08:16:24.318Z,0.97
2023-03-25T08:21:27.541Z,0.70
2023-03-25T08:26:33.912Z,0.70
2023-03-25T08:31:38.883Z,0.80
2023-03-25T08:36:40.670Z,0.80
2023-03-25T08:41:44.908Z,0.80
2023-03-25T08:46:46.675Z,0.60
2023-03-25T08:51:48.242Z,0.90
2023-03-25T08:56:49.917Z,1.40
2023-03-25T09:01:52.410Z,0.60
2023-03-25T09:07:10.739Z,0.67
2023-03-25T09:12:13.971Z,0.97
2023-03-25T09:17:15.746Z,2.27
2023-03-25T09:22:18.321Z,1.93
2023-03-25T09:27:20.055Z,1.13
2023-03-25T09:32:21.859Z,1.43
2023-03-25T09:37:23.737Z,1.07
2023-03-25T09:42:48.542Z,3.47
2023-03-25T09:48:28.175Z,2.53
2023-03-25T09:53:47.001Z,3.40
2023-03-25T09:58:51.274Z,1.83
2023-03-25T10:03:55.698Z,4.87
2023-03-25T10:09:07.307Z,2.23
2023-03-25T10:14:16.024Z,2.23
2023-03-25T10:19:23.661Z,3.63
2023-03-25T10:24:28.801Z,3.23
2023-03-25T10:29:39.681Z,3.20
2023-03-25T10:34:49.914Z,4.33
2023-03-25T10:39:51.669Z,2.60
2023-03-25T10:44:53.692Z,4.57
2023-03-25T10:49:55.647Z,3.33
2023-03-25T10:54:58.653Z,2.97
2023-03-25T11:00:06.688Z,1.57
2023-03-25T11:05:09.098Z,4.23
2023-03-25T11:10:13.982Z,5.67
2023-03-25T11:15:18.949Z,2.93
2023-03-25T11:20:22.300Z,1.30
2023-03-25T11:25:27.190Z,2.50
2023-03-25T11:30:28.936Z,5.07
2023-03-25T11:35:34.444Z,2.07
2023-03-25T11:40:36.561Z,3.03
2023-03-25T11:45:45.432Z,2.13
2023-03-25T11:50:53.044Z,0.93
2023-03-25T11:55:56.666Z,3.07
2023-03-25T12:01:04.115Z,3.70
2023-03-25T12:06:16.737Z,3.30
2023-03-25T12:11:29.385Z,1.67
2023-03-25T12:16:52.653Z,3.70
2023-03-25T12:22:00.851Z,2.43
2023-03-25T12:27:33.363Z,2.70
2023-03-25T12:33:14.328Z,3.27
2023-03-25T12:38:42.846Z,2.13
2023-03-25T12:44:04.755Z,1.70
2023-03-25T12:49:08.921Z,1.83
2023-03-25T12:54:42.548Z,2.93
2023-03-25T13:00:17.126Z,1.50
2023-03-25T13:05:25.946Z,2.20
2023-03-25T13:10:34.369Z,2.90
2023-03-25T13:15:41.073Z,4.23
2023-03-25T13:20:49.533Z,0.90
2023-03-25T13:25:57.507Z,1.47
2023-03-25T13:31:00.631Z,3.83
2023-03-25T13:36:10.154Z,3.40
2023-03-25T13:41:18.793Z,2.73
2023-03-25T13:46:36.783Z,2.33
2023-03-25T13:51:39.169Z,2.50
2023-03-25T13:56:57.273Z,2.67
2023-03-25T14:02:27.124Z,5.63
2023-03-25T14:07:39.740Z,2.80
2023-03-25T14:12:47.765Z,3.53
2023-03-25T14:17:52.769Z,3.73
2023-03-25T14:22:57.210Z,3.67
2023-03-25T14:28:00.159Z,2.23
2023-03-25T14:33:05.613Z,2.43
2023-03-25T14:38:07.556Z,4.97
2023-03-25T14:43:24.611Z,1.97
2023-03-25T14:48:37.437Z,1.23
2023-03-25T14:53:40.929Z,1.83
2023-03-25T14:58:42.522Z,4.03
2023-03-25T15:03:45.687Z,3.17
2023-03-25T15:08:54.698Z,2.63
2023-03-25T15:14:00.330Z,2.13
2023-03-25T15:19:11.534Z,3.17
2023-03-25T15:24:17.260Z,4.00
2023-03-25T15:29:36.964Z,1.87
2023-03-25T15:35:13.236Z,1.23
2023-03-25T15:40:33.430Z,3.30
2023-03-25T15:45:57.929Z,2.37
2023-03-25T15:51:17.761Z,2.67
2023-03-25T15:56:26.388Z,5.03
2023-03-25T16:01:39.138Z,1.60
2023-03-25T16:06:44.179Z,4.50
2023-03-25T16:11:46.878Z,2.50
2023-03-25T16:16:52.043Z,2.43
2023-03-25T16:21:54.691Z,3.07
2023-03-25T16:26:56.409Z,2.70
2023-03-25T16:32:00.027Z,1.03
2023-03-25T16:37:02.401Z,6.77
2023-03-25T16:42:36.580Z,2.87
2023-03-25T16:47:38.172Z,2.57
2023-03-25T16:52:39.788Z,2.07
2023-03-25T16:57:41.348Z,3.57
2023-03-25T17:02:44.380Z,3.73
2023-03-25T17:08:07.738Z,1.73
2023-03-25T17:13:10.556Z,2.87
2023-03-25T17:18:14.514Z,2.00
2023-03-25T17:23:21.983Z,4.90
2023-03-25T17:28:38.270Z,2.47
2023-03-25T17:33:47.856Z,3.57
2023-03-25T17:38:52.121Z,3.77
2023-03-25T17:43:54.806Z,5.13
2023-03-25T17:48:57.857Z,3.17
2023-03-25T17:53:59.499Z,4.10
2023-03-25T17:59:03.245Z,3.10
2023-03-25T18:04:05.569Z,3.87
2023-03-25T18:09:25.460Z,4.50
2023-03-25T18:14:27.325Z,3.07
2023-03-25T18:19:31.898Z,5.40
2023-03-25T18:24:34.275Z,2.73
2023-03-25T18:29:37.295Z,4.70
2023-03-25T18:34:38.905Z,1.53
2023-03-25T18:39:40.481Z,4.33
2023-03-25T18:44:42.860Z,3.57
2023-03-25T18:49:44.423Z,3.73
2023-03-25T19:01:33.388Z,2.20
2023-03-25T19:06:35.224Z,2.67
2023-03-25T19:11:36.850Z,2.53
2023-03-25T19:16:38.467Z,6.07
2023-03-25T19:21:40.587Z,3.60
2023-03-25T19:26:42.476Z,3.53
2023-03-25T19:31:44.279Z,4.30
2023-03-25T19:36:46.824Z,4.43
2023-03-25T19:41:49.502Z,2.07
2023-03-25T19:46:51.137Z,1.63
2023-03-25T19:51:52.796Z,2.10
2023-03-25T19:56:54.585Z,4.93
2023-03-25T20:01:57.676Z,3.80
2023-03-25T20:06:59.381Z,3.10
2023-03-25T20:12:01.527Z,11.50
2023-03-25T20:17:03.303Z,9.80
2023-03-25T20:22:18.317Z,4.20
2023-03-25T20:27:26.737Z,2.97
2023-03-25T20:32:39.737Z,4.33
2023-03-25T20:37:43.817Z,3.33
2023-03-25T20:42:47.275Z,7.97
2023-03-25T20:47:48.986Z,5.30
2023-03-25T20:52:50.908Z,3.13
2023-03-25T20:57:53.163Z,3.00
2023-03-25T21:02:55.492Z,7.40
2023-03-25T21:07:58.902Z,5.50
2023-03-25T21:13:00.499Z,4.00
2023-03-25T21:18:02.225Z,6.67
2023-03-25T21:23:05.481Z,6.43
2023-03-25T21:28:07.178Z,5.33
2023-03-25T21:33:10.360Z,2.33
2023-03-25T21:38:12.172Z,4.43
2023-03-25T21:43:13.841Z,3.33
2023-03-25T21:48:17.619Z,5.37
2023-03-25T21:53:22.088Z,4.97
2023-03-25T21:58:24.617Z,3.73
2023-03-25T22:03:35.243Z,4.70
2023-03-25T22:08:37.824Z,6.87
2023-03-25T22:13:40.027Z,5.13
2023-03-25T22:18:42.048Z,6.50
2023-03-25T22:23:47.606Z,7.97
2023-03-25T22:28:51.298Z,4.87
2023-03-25T22:34:03.295Z,7.37
2023-03-25T22:39:06.479Z,6.67
2023-03-25T22:44:08.015Z,4.87
2023-03-25T22:49:09.701Z,6.43
2023-03-25T22:54:11.629Z,4.83
2023-03-25T22:59:14.769Z,8.33
2023-03-25T23:04:17.138Z,6.27
2023-03-25T23:09:38.772Z,7.03
2023-03-25T23:14:48.530Z,4.47
2023-03-25T23:19:50.767Z,8.80
2023-03-25T23:24:52.302Z,5.90
2023-03-25T23:29:54.050Z,8.37
2023-03-25T23:34:58.211Z,5.37
2023-03-25T23:40:07.528Z,6.63
2023-03-25T23:45:10.796Z,5.90
2023-03-25T23:50:17.938Z,4.13
2023-03-25T23:55:20.620Z,5.00
